Time;durP1;ratioP1;P1;durP2;ratioP2;P2;SDS_P1;SDS_P2;PMS_P1;PMS_P2;Temp;Humidity;BMP_temperature;BMP_pressure;BME280_temperature;BME280_humidity;BME280_pressure;Samples;Min_cycle;Max_cycle;Signal;HPM_P1;HPM_P2
2021/07/15 00:00:11;;;;;;;8.45;4.32;;;;;;;18.76;73.60;96709.34;5051541;28;20038;-78
2021/07/15 00:02:36;;;;;;;5.65;3.80;;;;;;;18.90;73.45;96704.72;5016064;28;20094;-78
2021/07/15 00:05:09;;;;;;;4.22;3.33;;;;;;;18.71;73.62;96697.88;5016976;28;20082;-78
2021/07/15 00:07:34;;;;;;;4.82;3.60;;;;;;;18.82;73.51;96698.34;5033336;28;20075;-78
2021/07/15 00:10:00;;;;;;;7.97;3.95;;;;;;;18.74;73.57;96703.59;5033080;28;20072;-78
2021/07/15 00:12:25;;;;;;;7.20;3.83;;;;;;;18.72;74.07;96711.81;5016999;28;20461;-78
2021/07/15 00:14:51;;;;;;;6.05;4.03;;;;;;;18.64;73.98;96708.06;5050835;28;20036;-79
2021/07/15 00:17:16;;;;;;;4.95;3.90;;;;;;;18.62;74.12;96707.59;5033222;28;20041;-78
2021/07/15 00:19:42;;;;;;;5.72;3.30;;;;;;;18.66;74.19;96699.84;5032776;28;20029;-78
2021/07/15 00:22:07;;;;;;;4.50;3.78;;;;;;;18.71;73.69;96697.06;5033465;28;20028;-78
2021/07/15 00:24:33;;;;;;;6.18;4.50;;;;;;;18.68;73.97;96702.97;4998575;28;20458;-78
2021/07/15 00:26:58;;;;;;;4.30;3.40;;;;;;;18.63;74.14;96697.84;5022470;28;20083;-78
2021/07/15 00:29:24;;;;;;;4.68;3.75;;;;;;;18.71;73.91;96702.34;5031932;28;20048;-78
2021/07/15 00:31:49;;;;;;;6.43;4.03;;;;;;;18.77;73.68;96705.63;5043723;28;20029;-78
2021/07/15 00:34:15;;;;;;;4.47;3.75;;;;;;;18.80;73.33;96708.41;5049486;28;20029;-79
2021/07/15 00:36:40;;;;;;;5.53;3.70;;;;;;;18.79;73.50;96706.84;5049835;28;20030;-78
2021/07/15 00:39:07;;;;;;;6.65;3.88;;;;;;;18.78;73.56;96707.97;5050172;28;20033;-78
2021/07/15 00:41:33;;;;;;;6.63;4.25;;;;;;;18.81;73.46;96711.81;5016413;28;20064;-79
2021/07/15 00:43:58;;;;;;;6.38;3.83;;;;;;;18.83;73.69;96694.66;5032747;28;20028;-78
2021/07/15 00:46:23;;;;;;;6.15;4.13;;;;;;;18.89;73.33;96697.91;5042521;28;20078;-78
2021/07/15 00:48:49;;;;;;;5.05;3.33;;;;;;;18.92;73.24;96685.94;5050997;28;20033;-78
2021/07/15 00:51:15;;;;;;;3.80;3.40;;;;;;;18.89;73.26;96687.34;5032357;28;20034;-78
2021/07/15 00:53:40;;;;;;;4.15;3.30;;;;;;;18.88;73.14;96683.94;5033200;28;20487;-78
2021/07/15 00:56:06;;;;;;;5.60;3.88;;;;;;;18.82;73.28;96685.16;5036505;28;20626;-78
2021/07/15 00:58:32;;;;;;;5.50;3.85;;;;;;;18.81;73.07;96682.81;5042962;28;21535;-78
2021/07/15 01:00:57;;;;;;;4.70;3.40;;;;;;;18.79;73.11;96675.22;5008027;28;20024;-78
2021/07/15 01:03:23;;;;;;;4.07;2.92;;;;;;;18.78;73.16;96673.66;5006414;28;20033;-78
2021/07/15 01:05:51;;;;;;;4.55;2.75;;;;;;;18.66;73.04;96676.13;5012511;28;20025;-78
2021/07/15 01:08:17;;;;;;;4.32;3.33;;;;;;;18.69;73.22;96680.78;5029508;28;20353;-78
2021/07/15 01:10:58;;;;;;;5.20;3.55;;;;;;;18.48;73.61;96686.66;5012831;28;20037;-78
2021/07/15 01:14:09;;;;;;;4.25;3.38;;;;;;;18.51;73.40;96686.03;5013348;28;20401;-78
2021/07/15 01:16:53;;;;;;;3.33;2.45;;;;;;;18.40;73.81;96687.41;5047884;28;20521;-78
2021/07/15 01:19:37;;;;;;;5.13;2.95;;;;;;;18.45;73.75;96689.88;5052344;28;20033;-78
2021/07/15 01:22:05;;;;;;;6.75;3.35;;;;;;;18.47;73.64;96692.22;5052407;28;20041;-78
2021/07/15 01:25:01;;;;;;;5.22;3.65;;;;;;;18.39;74.09;96699.03;5052308;28;20368;-78
2021/07/15 01:27:26;;;;;;;5.15;3.80;;;;;;;18.50;73.61;96696.88;5029074;28;20040;-79
2021/07/15 01:30:07;;;;;;;7.80;3.70;;;;;;;18.41;73.57;96694.22;5051912;28;20037;-78
2021/07/15 01:33:15;;;;;;;6.55;3.63;;;;;;;18.32;74.06;96696.06;5052280;28;20720;-78
2021/07/15 01:35:47;;;;;;;4.70;3.55;;;;;;;18.52;73.60;96706.06;5039389;28;20102;-78
2021/07/15 01:38:13;;;;;;;4.70;2.88;;;;;;;18.58;73.46;96708.53;5045166;28;20033;-78
2021/07/15 01:40:44;;;;;;;3.97;2.80;;;;;;;18.43;73.87;96707.88;5012495;28;20080;-78
2021/07/15 01:43:14;;;;;;;5.60;3.38;;;;;;;18.51;73.00;96711.63;5052039;28;20071;-78
2021/07/15 01:45:40;;;;;;;5.20;3.28;;;;;;;18.57;73.21;96717.53;5015519;28;20029;-78
2021/07/15 01:48:09;;;;;;;7.47;3.15;;;;;;;18.48;73.46;96723.56;5038858;28;20064;-78
2021/07/15 01:50:34;;;;;;;4.88;2.75;;;;;;;18.54;73.28;96716.25;5034967;28;20033;-78
2021/07/15 01:53:00;;;;;;;3.90;2.65;;;;;;;18.55;73.35;96711.78;5035350;28;20031;-78
2021/07/15 01:55:26;;;;;;;4.68;3.25;;;;;;;18.55;73.61;96709.91;5035646;28;20067;-78
2021/07/15 01:57:52;;;;;;;6.00;3.00;;;;;;;18.51;73.20;96715.03;5051000;28;20035;-79
2021/07/15 02:00:18;;;;;;;6.47;3.60;;;;;;;18.51;73.41;96712.41;5051391;28;20029;-79
2021/07/15 02:02:44;;;;;;;12.52;3.05;;;;;;;18.45;73.39;96713.63;5051590;28;20159;-79
2021/07/15 02:05:10;;;;;;;5.78;3.00;;;;;;;18.49;73.40;96724.31;5034715;28;20044;-79
2021/07/15 02:07:37;;;;;;;9.98;3.45;;;;;;;18.47;73.57;96735.19;5052472;28;20108;-78
2021/07/15 02:10:09;;;;;;;8.48;3.25;;;;;;;18.34;73.41;96730.81;5050679;28;20040;-78
2021/07/15 02:12:36;;;;;;;5.35;3.70;;;;;;;18.41;73.48;96731.13;5034982;28;20029;-78
2021/07/15 02:15:03;;;;;;;5.25;3.35;;;;;;;18.46;73.49;96730.22;5046231;28;20100;-78
2021/07/15 02:17:28;;;;;;;6.65;3.00;;;;;;;18.47;73.22;96731.75;5034950;28;20033;-79
2021/07/15 02:19:55;;;;;;;6.90;3.50;;;;;;;18.36;73.24;96733.91;5034552;28;20040;-79
2021/07/15 02:22:21;;;;;;;4.95;3.08;;;;;;;18.43;73.48;96739.50;5045170;28;20033;-78
2021/07/15 02:24:47;;;;;;;5.18;3.13;;;;;;;18.43;73.39;96741.38;5051696;28;20098;-78
2021/07/15 02:27:13;;;;;;;4.82;3.10;;;;;;;18.47;73.17;96740.47;5038060;28;20041;-78
2021/07/15 02:29:38;;;;;;;3.72;2.95;;;;;;;18.52;73.22;96740.31;5025504;28;20038;-79
2021/07/15 02:32:06;;;;;;;2.47;2.28;;;;;;;18.47;73.04;96744.94;5048634;28;20032;-78
2021/07/15 02:34:39;;;;;;;2.13;1.73;;;;;;;18.37;73.39;96753.94;5030068;28;20025;-78
2021/07/15 02:37:06;;;;;;;3.72;2.90;;;;;;;18.51;73.21;96741.41;5010865;28;20021;-78
2021/07/15 02:39:32;;;;;;;2.97;2.30;;;;;;;18.58;72.83;96742.81;5044230;28;20111;-78
2021/07/15 02:41:58;;;;;;;4.40;2.45;;;;;;;18.52;72.99;96735.06;5034133;28;20081;-78
2021/07/15 02:44:25;;;;;;;5.40;2.60;;;;;;;18.52;72.92;96737.69;5015675;28;20039;-78
2021/07/15 02:46:51;;;;;;;4.13;2.53;;;;;;;18.56;73.06;96735.22;5051445;28;20032;-78
2021/07/15 02:49:16;;;;;;;2.50;1.90;;;;;;;18.54;73.04;96734.72;5050973;28;20039;-78
2021/07/15 02:51:42;;;;;;;3.53;2.20;;;;;;;18.51;73.03;96730.09;5050875;28;20049;-78
2021/07/15 02:54:07;;;;;;;5.72;2.70;;;;;;;18.48;73.29;96731.47;5052390;28;20044;-78
2021/07/15 02:56:40;;;;;;;2.97;2.40;;;;;;;18.37;73.19;96735.47;5034718;28;20057;-78
2021/07/15 02:59:13;;;;;;;3.08;2.25;;;;;;;18.37;73.20;96724.13;5052247;28;20044;-78
2021/07/15 03:01:59;;;;;;;2.72;2.10;;;;;;;18.28;73.52;96721.47;5051110;28;20017;-78
2021/07/15 03:04:37;;;;;;;3.33;2.10;;;;;;;18.24;73.62;96723.94;5034649;28;20063;-78
2021/07/15 03:07:03;;;;;;;3.97;1.80;;;;;;;18.36;73.35;96718.09;5044129;28;20033;-78
2021/07/15 03:09:30;;;;;;;5.07;2.28;;;;;;;18.36;73.75;96720.72;5033920;28;20553;-78
2021/07/15 03:12:11;;;;;;;2.30;1.83;;;;;;;18.50;72.88;96724.00;5034528;28;20037;-78
2021/07/15 03:14:38;;;;;;;2.55;1.90;;;;;;;18.45;73.27;96721.53;5045172;28;20620;-78
2021/07/15 03:17:07;;;;;;;2.97;2.17;;;;;;;18.40;73.28;96732.22;5027835;28;20107;-78
2021/07/15 03:19:33;;;;;;;3.20;2.40;;;;;;;18.51;73.13;96728.22;5050537;28;20083;-78
2021/07/15 03:21:59;;;;;;;3.55;2.03;;;;;;;18.56;72.94;96731.78;5017784;28;20037;-78
2021/07/15 03:24:28;;;;;;;3.90;2.30;;;;;;;18.46;73.10;96731.00;5017726;28;20075;-78
2021/07/15 03:26:56;;;;;;;2.83;2.10;;;;;;;18.44;73.16;96730.53;5044051;28;20156;-78
2021/07/15 03:29:22;;;;;;;3.60;2.63;;;;;;;18.53;72.92;96739.22;5049895;28;20039;-78
2021/07/15 03:31:47;;;;;;;3.70;2.30;;;;;;;18.51;73.08;96735.34;5011403;28;20055;-78
2021/07/15 03:34:12;;;;;;;3.28;2.05;;;;;;;18.49;73.42;96740.94;5048225;28;20032;-78
2021/07/15 03:36:41;;;;;;;2.95;2.22;;;;;;;18.46;73.00;96746.03;5047570;28;20032;-78
2021/07/15 03:39:07;;;;;;;3.58;2.50;;;;;;;18.46;73.12;96741.53;5050758;28;20074;-78
2021/07/15 03:41:32;;;;;;;2.58;2.13;;;;;;;18.49;73.26;96740.13;5048728;28;20028;-78
2021/07/15 03:43:58;;;;;;;4.85;2.05;;;;;;;18.55;73.08;96735.53;5010147;28;20026;-78
2021/07/15 03:46:26;;;;;;;3.03;1.85;;;;;;;18.41;73.07;96735.63;5011186;28;20489;-78
2021/07/15 03:48:52;;;;;;;2.65;1.90;;;;;;;18.42;73.30;96739.81;5039118;28;20117;-78
2021/07/15 03:51:17;;;;;;;2.70;1.88;;;;;;;18.42;73.40;96737.97;5043557;28;20056;-78
2021/07/15 03:53:44;;;;;;;3.75;1.80;;;;;;;18.38;73.47;96734.38;5016779;28;20430;-78
2021/07/15 03:56:12;;;;;;;2.38;2.00;;;;;;;18.45;73.29;96737.34;5044839;28;20111;-78
2021/07/15 03:58:43;;;;;;;3.58;2.67;;;;;;;18.38;73.39;96737.00;5033566;28;20571;-78
2021/07/15 04:01:10;;;;;;;3.53;2.10;;;;;;;18.45;73.25;96737.34;5017129;28;20021;-78
2021/07/15 04:03:36;;;;;;;5.38;2.00;;;;;;;18.45;73.40;96737.34;5050281;28;20104;-79
2021/07/15 04:06:02;;;;;;;2.90;1.90;;;;;;;18.44;73.37;96740.28;5044019;28;20416;-79
2021/07/15 04:08:28;;;;;;;4.05;2.33;;;;;;;18.49;73.11;96740.94;5049696;28;20090;-78
2021/07/15 04:10:55;;;;;;;3.95;2.17;;;;;;;18.45;73.33;96747.13;5017171;28;20029;-78
2021/07/15 04:13:24;;;;;;;3.70;2.47;;;;;;;18.43;73.41;96755.31;5050298;28;20029;-78
2021/07/15 04:16:20;;;;;;;4.53;2.40;;;;;;;18.29;73.45;96758.06;5044686;28;20483;-78
2021/07/15 04:18:47;;;;;;;4.00;2.28;;;;;;;18.50;73.22;96765.44;5050175;28;20110;-78
2021/07/15 04:21:14;;;;;;;3.53;2.85;;;;;;;18.48;73.34;96772.88;5033254;28;20028;-78
2021/07/15 04:23:41;;;;;;;4.22;2.65;;;;;;;18.48;73.13;96778.91;5049582;28;20041;-78
2021/07/15 04:26:07;;;;;;;4.13;2.63;;;;;;;18.55;73.03;96777.69;5043904;28;20103;-78
2021/07/15 04:28:32;;;;;;;20.83;15.70;;;;;;;18.53;73.14;96781.41;5034652;28;20679;-78
2021/07/15 04:31:07;;;;;;;11.43;9.52;;;;;;;18.36;73.36;96785.84;5015875;28;20029;-78
2021/07/15 04:33:33;;;;;;;7.23;4.80;;;;;;;18.50;73.13;96775.97;5039461;28;20032;-79
2021/07/15 04:35:58;;;;;;;5.13;3.95;;;;;;;18.51;73.18;96777.53;5033560;28;20397;-78
2021/07/15 04:38:24;;;;;;;3.30;3.00;;;;;;;18.47;73.75;96772.09;5040246;28;20029;-78
2021/07/15 04:40:50;;;;;;;3.70;2.55;;;;;;;18.43;73.83;96784.31;5050608;28;20025;-78
2021/07/15 04:43:16;;;;;;;11.05;2.83;;;;;;;18.41;73.71;96778.59;5053530;28;20029;-78
2021/07/15 04:45:43;;;;;;;3.92;2.25;;;;;;;18.40;73.89;96784.94;5018845;28;20068;-78
2021/07/15 04:48:09;;;;;;;6.78;2.65;;;;;;;18.49;73.59;96779.69;5033919;28;20037;-78
2021/07/15 04:50:36;;;;;;;3.42;2.80;;;;;;;18.57;73.33;96780.81;5042547;28;20083;-78
2021/07/15 04:53:11;;;;;;;2.67;1.90;;;;;;;18.43;73.48;96784.31;5053244;28;20095;-78
2021/07/15 04:55:37;;;;;;;3.40;2.05;;;;;;;18.64;73.25;96778.50;5020621;28;20090;-78
2021/07/15 04:58:04;;;;;;;3.10;2.03;;;;;;;18.66;73.08;96792.94;5029975;28;20034;-78
2021/07/15 05:00:29;;;;;;;3.30;1.85;;;;;;;18.66;73.20;96795.56;5052178;28;20036;-78
2021/07/15 05:03:00;;;;;;;3.70;2.25;;;;;;;18.54;73.14;96792.72;5047304;28;20033;-78
2021/07/15 05:05:26;;;;;;;3.90;2.60;;;;;;;18.68;73.29;96801.31;5018883;28;20375;-78
2021/07/15 05:07:51;;;;;;;3.72;1.77;;;;;;;18.71;73.18;96813.09;5019383;28;20032;-78
2021/07/15 05:10:17;;;;;;;2.50;1.80;;;;;;;18.68;73.09;96813.75;5051668;28;20534;-78
2021/07/15 05:12:42;;;;;;;2.53;2.00;;;;;;;18.64;73.57;96816.19;5043490;28;20029;-79
2021/07/15 05:15:10;;;;;;;2.63;1.98;;;;;;;18.50;73.46;96812.88;5042075;28;20414;-78
2021/07/15 05:17:37;;;;;;;2.40;1.70;;;;;;;18.63;73.39;96824.41;5033413;28;20036;-78
2021/07/15 05:20:11;;;;;;;1.95;1.60;;;;;;;18.43;73.50;96834.41;5046473;28;20112;-78
2021/07/15 05:22:38;;;;;;;2.35;1.58;;;;;;;18.66;72.85;96831.69;5034766;28;20029;-78
2021/07/15 05:25:05;;;;;;;1.90;1.60;;;;;;;18.66;73.15;96821.16;5042981;28;20033;-78
2021/07/15 05:27:31;;;;;;;2.80;1.80;;;;;;;18.72;73.37;96831.25;5050375;28;20095;-79
2021/07/15 05:29:56;;;;;;;3.90;2.20;;;;;;;18.72;73.38;96827.84;5051316;28;20033;-78
2021/07/15 05:32:22;;;;;;;3.70;2.42;;;;;;;18.72;73.65;96825.22;5048566;28;20029;-78
2021/07/15 05:34:47;;;;;;;3.17;1.95;;;;;;;18.71;73.29;96828.94;5045467;28;20082;-78
2021/07/15 05:37:13;;;;;;;3.47;1.88;;;;;;;18.72;73.31;96838.41;5050966;28;20101;-79
2021/07/15 05:39:44;;;;;;;2.95;2.03;;;;;;;18.68;73.13;96842.75;5013475;28;20029;-79
2021/07/15 05:42:11;;;;;;;3.83;2.03;;;;;;;18.82;72.96;96846.06;5036011;28;20577;-78
2021/07/15 05:44:37;;;;;;;2.30;1.90;;;;;;;18.83;72.71;96849.47;5033319;28;20056;-78
2021/07/15 05:47:02;;;;;;;3.63;1.80;;;;;;;18.87;72.76;96853.84;5018558;28;20486;-78
2021/07/15 05:49:28;;;;;;;2.40;1.83;;;;;;;18.84;72.93;96853.69;5022593;28;20037;-78
2021/07/15 05:51:53;;;;;;;3.53;1.73;;;;;;;18.82;73.17;96856.63;5011929;28;20483;-79
2021/07/15 05:54:18;;;;;;;2.50;1.60;;;;;;;18.75;73.63;96853.63;5051491;28;20044;-79
2021/07/15 05:56:44;;;;;;;1.95;1.63;;;;;;;18.76;73.68;96857.03;5045347;28;20055;-79
2021/07/15 05:59:09;;;;;;;2.70;2.30;;;;;;;18.76;73.42;96859.66;5033862;28;20041;-79
2021/07/15 06:01:35;;;;;;;3.05;2.30;;;;;;;18.77;73.43;96859.38;5034485;28;20025;-79
2021/07/15 06:04:00;;;;;;;2.33;1.83;;;;;;;18.81;73.42;96843.72;5052289;28;20479;-78
2021/07/15 06:06:25;;;;;;;3.28;2.13;;;;;;;18.87;73.43;96831.97;5034781;28;20113;-79
2021/07/15 06:08:53;;;;;;;2.03;1.83;;;;;;;18.85;73.52;96824.38;5034318;28;20029;-79
2021/07/15 06:11:18;;;;;;;2.50;1.75;;;;;;;18.98;73.13;96821.91;5051227;28;20074;-79
2021/07/15 06:13:44;;;;;;;2.58;2.30;;;;;;;19.05;73.28;96820.34;5032692;28;20106;-79
2021/07/15 06:16:09;;;;;;;3.03;2.20;;;;;;;19.03;73.50;96819.88;5025124;28;20028;-79
2021/07/15 06:18:35;;;;;;;2.15;1.88;;;;;;;19.14;73.01;96820.41;5050692;28;20029;-79
2021/07/15 06:21:00;;;;;;;1.77;1.58;;;;;;;19.11;72.92;96820.22;5027817;28;20519;-78
2021/07/15 06:23:26;;;;;;;1.92;1.73;;;;;;;19.13;73.36;96821.47;5037662;28;20120;-79
2021/07/15 06:25:51;;;;;;;1.95;1.67;;;;;;;19.17;73.00;96834.81;5027532;28;20037;-79
2021/07/15 06:28:17;;;;;;;1.67;1.55;;;;;;;19.24;72.35;96835.13;5036220;28;20037;-79
2021/07/15 06:30:42;;;;;;;1.98;1.48;;;;;;;19.24;72.30;96838.56;5042345;28;20040;-79
2021/07/15 06:33:08;;;;;;;1.80;1.60;;;;;;;19.25;72.43;96837.47;5045968;28;20032;-79
2021/07/15 06:35:40;;;;;;;1.60;1.40;;;;;;;19.26;72.63;96841.69;5050389;28;20729;-79
2021/07/15 06:38:06;;;;;;;2.80;1.55;;;;;;;19.30;72.46;96843.72;5018468;28;20037;-79
2021/07/15 06:40:31;;;;;;;1.80;1.70;;;;;;;19.34;72.17;96845.41;5033853;28;20033;-79
2021/07/15 06:42:56;;;;;;;1.63;1.42;;;;;;;19.39;72.54;96841.84;5033875;28;20033;-79
2021/07/15 06:45:22;;;;;;;1.52;1.42;;;;;;;19.40;72.53;96841.53;5049200;28;20107;-79
2021/07/15 06:47:47;;;;;;;2.42;1.63;;;;;;;19.46;72.19;96848.19;5023845;28;20049;-79
2021/07/15 06:50:15;;;;;;;1.92;1.73;;;;;;;19.44;72.26;96857.53;5018177;28;20088;-79
2021/07/15 06:52:42;;;;;;;1.83;1.73;;;;;;;19.42;72.14;96847.28;5033638;28;20031;-79
2021/07/15 06:55:08;;;;;;;1.33;1.23;;;;;;;19.45;72.06;96861.72;5048010;28;20037;-79
2021/07/15 06:57:34;;;;;;;1.58;1.30;;;;;;;19.44;71.93;96854.88;4996242;28;20034;-79
2021/07/15 07:00:00;;;;;;;1.52;1.42;;;;;;;19.47;71.68;96854.28;5036817;28;20037;-79
2021/07/15 07:02:26;;;;;;;1.48;1.38;;;;;;;19.42;72.12;96857.06;5028659;28;20083;-79
2021/07/15 07:04:52;;;;;;;1.50;1.35;;;;;;;19.46;71.97;96869.31;5011377;28;20392;-79
2021/07/15 07:07:17;;;;;;;1.73;1.63;;;;;;;19.44;72.12;96866.22;5025265;28;20097;-79
2021/07/15 07:09:43;;;;;;;1.50;1.30;;;;;;;19.50;72.00;96863.44;5049556;28;20071;-79
2021/07/15 07:12:08;;;;;;;1.30;1.20;;;;;;;19.56;71.98;96865.59;5049698;28;20025;-79
2021/07/15 07:14:34;;;;;;;1.90;1.65;;;;;;;19.66;71.12;96864.53;5021141;28;20033;-79
2021/07/15 07:16:59;;;;;;;2.35;2.15;;;;;;;19.66;71.04;96861.88;5045227;28;20033;-79
2021/07/15 07:19:25;;;;;;;1.83;1.73;;;;;;;19.74;71.40;96858.50;5031044;28;20534;-79
2021/07/15 07:21:50;;;;;;;1.80;1.70;;;;;;;19.79;71.29;96857.56;5017436;28;20108;-79
2021/07/15 07:24:15;;;;;;;2.65;2.20;;;;;;;19.90;71.27;96860.69;5024603;28;20061;-79
2021/07/15 07:26:41;;;;;;;2.50;2.30;;;;;;;19.89;71.31;96859.88;5025600;28;20038;-79
2021/07/15 07:29:07;;;;;;;2.30;2.10;;;;;;;19.97;70.39;96855.69;5046978;28;20041;-79
2021/07/15 07:31:33;;;;;;;2.65;2.42;;;;;;;20.01;70.45;96862.69;5042739;28;20132;-79
2021/07/15 07:33:58;;;;;;;1.92;1.83;;;;;;;20.01;70.55;96857.41;5041219;28;20067;-79
2021/07/15 07:36:24;;;;;;;2.08;1.98;;;;;;;20.07;70.95;96859.88;5044436;28;20443;-79
2021/07/15 07:38:50;;;;;;;2.15;2.00;;;;;;;20.14;69.97;96857.53;5010813;28;20033;-79
2021/07/15 07:41:15;;;;;;;2.33;2.13;;;;;;;20.06;70.03;96858.31;5031189;28;20017;-79
2021/07/15 07:43:41;;;;;;;2.30;2.10;;;;;;;20.04;70.34;96873.72;5033000;28;20033;-79
2021/07/15 07:46:06;;;;;;;2.50;2.30;;;;;;;20.05;70.41;96878.69;5018757;28;20680;-79
2021/07/15 07:48:32;;;;;;;2.83;2.58;;;;;;;20.16;69.98;96876.50;5032613;28;20038;-79
2021/07/15 07:50:58;;;;;;;3.10;2.75;;;;;;;20.16;70.00;96885.19;5040597;28;20036;-79
2021/07/15 07:53:28;;;;;;;2.78;2.50;;;;;;;19.94;70.07;96888.78;5024245;28;20118;-79
2021/07/15 07:55:54;;;;;;;2.42;2.22;;;;;;;20.04;70.84;96892.97;5016949;28;20511;-79
2021/07/15 07:58:23;;;;;;;2.58;2.38;;;;;;;20.17;70.96;96889.41;5010505;28;20025;-79
2021/07/15 08:00:49;;;;;;;2.25;2.10;;;;;;;20.23;70.47;96890.00;5018354;28;20050;-78
2021/07/15 08:03:17;;;;;;;2.70;2.50;;;;;;;20.28;70.58;96895.13;5040444;28;20044;-78
2021/07/15 08:05:44;;;;;;;2.63;2.20;;;;;;;20.25;69.32;96887.06;5030788;28;20025;-78
2021/07/15 08:08:09;;;;;;;2.92;2.65;;;;;;;20.31;69.56;96894.50;5032323;28;20029;-78
2021/07/15 08:10:36;;;;;;;3.30;3.00;;;;;;;20.30;68.94;96895.59;5023163;28;20400;-78
2021/07/15 08:13:01;;;;;;;2.95;2.75;;;;;;;20.60;69.41;96898.31;5032460;28;20530;-78
2021/07/15 08:15:27;;;;;;;4.18;3.17;;;;;;;20.74;69.67;96898.16;5026896;28;20120;-78
2021/07/15 08:17:52;;;;;;;2.92;2.72;;;;;;;20.93;69.69;96906.47;5046187;28;20358;-78
2021/07/15 08:20:18;;;;;;;2.85;2.65;;;;;;;21.22;68.79;96898.88;5042857;28;20033;-78
2021/07/15 08:22:43;;;;;;;2.70;2.50;;;;;;;21.20;68.21;96898.38;5012222;28;20523;-78
2021/07/15 08:25:10;;;;;;;2.90;2.70;;;;;;;21.29;67.92;96902.56;5047052;28;20040;-78
2021/07/15 08:27:35;;;;;;;3.13;2.92;;;;;;;21.36;66.98;96896.75;5024339;28;20076;-78
2021/07/15 08:30:01;;;;;;;2.25;2.10;;;;;;;21.30;66.73;96898.03;5000483;28;20044;-78
2021/07/15 08:32:26;;;;;;;2.30;1.90;;;;;;;21.30;66.83;96903.31;5042838;28;20068;-78
2021/07/15 08:34:51;;;;;;;2.42;2.22;;;;;;;21.22;67.36;96906.81;5042742;28;20541;-78
2021/07/15 08:37:17;;;;;;;2.72;2.53;;;;;;;21.20;67.82;96911.63;5043504;28;20045;-78
2021/07/15 08:39:42;;;;;;;2.40;2.20;;;;;;;21.25;66.83;96911.44;5021235;28;20040;-78
2021/07/15 08:42:09;;;;;;;1.95;1.85;;;;;;;21.26;66.90;96911.13;5042260;28;20037;-78
2021/07/15 08:44:37;;;;;;;2.08;1.92;;;;;;;21.24;65.67;96917.84;5018219;28;20034;-77
2021/07/15 08:47:02;;;;;;;1.95;1.85;;;;;;;21.28;66.86;96916.91;5022762;28;20033;-78
2021/07/15 08:49:28;;;;;;;2.03;1.92;;;;;;;21.28;66.65;96921.41;5024131;28;20091;-77
2021/07/15 08:51:54;;;;;;;2.50;2.30;;;;;;;21.31;66.11;96926.06;4999298;28;20045;-78
2021/07/15 08:54:21;;;;;;;2.20;2.00;;;;;;;21.27;66.99;96923.28;5030934;28;20120;-78
2021/07/15 08:56:47;;;;;;;2.53;2.33;;;;;;;21.34;65.96;96920.13;5041098;28;20029;-78
2021/07/15 08:59:18;;;;;;;2.10;2.00;;;;;;;21.30;66.13;96917.34;5023149;28;20066;-78
2021/07/15 09:01:46;;;;;;;2.40;2.20;;;;;;;21.30;65.79;96913.91;5039111;28;20029;-78
2021/07/15 09:04:12;;;;;;;2.58;1.95;;;;;;;21.37;66.53;96919.50;5037452;28;20555;-77
2021/07/15 09:06:39;;;;;;;2.33;2.13;;;;;;;21.38;66.50;96923.69;5048575;28;20044;-77
2021/07/15 09:09:05;;;;;;;2.10;1.90;;;;;;;21.50;65.53;96923.03;5028042;28;20459;-77
2021/07/15 09:11:30;;;;;;;2.45;2.25;;;;;;;21.48;66.75;96925.22;5010178;28;20029;-78
2021/07/15 09:13:56;;;;;;;2.40;2.20;;;;;;;21.47;66.88;96924.47;5038630;28;20472;-78
2021/07/15 09:16:21;;;;;;;2.42;2.22;;;;;;;21.45;66.37;96934.53;5049480;28;20032;-77
2021/07/15 09:18:58;;;;;;;2.40;2.20;;;;;;;21.24;67.47;96931.88;5024015;28;20044;-77
2021/07/15 09:21:25;;;;;;;1.98;1.80;;;;;;;21.37;66.12;96940.69;5046265;28;20860;-78
2021/07/15 09:23:51;;;;;;;2.58;1.95;;;;;;;21.28;65.45;96947.88;5026918;28;20030;-77
2021/07/15 09:26:17;;;;;;;1.90;1.80;;;;;;;21.31;66.39;96941.97;5051983;28;20045;-77
2021/07/15 09:28:42;;;;;;;1.95;1.85;;;;;;;21.18;66.51;96950.91;5046533;28;20044;-77
2021/07/15 09:31:16;;;;;;;1.92;1.83;;;;;;;21.02;67.06;96943.47;5045791;28;20029;-77
2021/07/15 09:33:42;;;;;;;2.10;1.85;;;;;;;21.00;67.21;96950.97;5023571;28;20033;-77
2021/07/15 09:36:13;;;;;;;2.40;2.20;;;;;;;20.94;67.44;96953.03;5031187;28;20032;-77
2021/07/15 09:38:39;;;;;;;1.98;1.88;;;;;;;21.07;67.39;96953.91;5014732;28;20052;-77
2021/07/15 09:41:08;;;;;;;2.10;1.90;;;;;;;21.08;67.65;96955.47;5000247;28;20088;-77
2021/07/15 09:43:41;;;;;;;2.65;2.45;;;;;;;20.97;68.03;96956.91;5045679;28;20476;-77
2021/07/15 09:46:12;;;;;;;2.65;2.40;;;;;;;21.02;68.62;96959.38;5026708;28;20527;-77
2021/07/15 09:48:39;;;;;;;2.30;2.10;;;;;;;21.22;67.46;96957.88;5042551;28;20112;-77
2021/07/15 09:51:08;;;;;;;1.98;1.83;;;;;;;21.07;66.90;96958.44;5018322;28;20447;-77
2021/07/15 09:53:36;;;;;;;2.60;2.40;;;;;;;21.19;67.26;96952.47;5023138;28;20116;-77
2021/07/15 09:56:06;;;;;;;2.22;2.03;;;;;;;21.19;66.73;96949.81;5038114;28;20112;-77
2021/07/15 09:58:48;;;;;;;2.58;2.00;;;;;;;21.13;67.33;96946.56;5050762;28;20040;-78
2021/07/15 10:01:20;;;;;;;2.53;2.33;;;;;;;21.24;66.96;96953.03;5030124;28;20158;-77
2021/07/15 10:03:56;;;;;;;2.17;2.00;;;;;;;21.22;67.35;96954.47;5007924;28;20043;-78
2021/07/15 10:06:22;;;;;;;2.17;2.00;;;;;;;21.14;66.43;96956.06;5014147;28;20043;-78
2021/07/15 10:08:54;;;;;;;3.20;2.47;;;;;;;20.97;67.52;96954.25;5011481;28;20041;-77
2021/07/15 10:11:21;;;;;;;3.40;2.17;;;;;;;21.03;67.80;96949.56;5028605;28;20040;-77
2021/07/15 10:14:07;;;;;;;2.40;2.20;;;;;;;20.67;68.56;96954.19;5029042;28;20029;-77
2021/07/15 10:16:34;;;;;;;3.17;1.90;;;;;;;20.69;68.17;96965.22;5029995;28;20030;-77
2021/07/15 10:19:00;;;;;;;2.55;2.35;;;;;;;20.69;68.87;96965.22;5024181;28;20040;-77
2021/07/15 10:21:30;;;;;;;2.78;2.50;;;;;;;20.58;69.55;96979.88;5043059;28;20033;-78
2021/07/15 10:23:58;;;;;;;2.70;2.45;;;;;;;20.39;69.87;96974.88;5012297;28;20152;-79
2021/07/15 10:26:23;;;;;;;2.70;2.40;;;;;;;20.48;70.28;96982.84;5025307;28;20464;-78
2021/07/15 10:28:51;;;;;;;3.30;2.83;;;;;;;20.40;70.79;96979.88;5001159;28;20043;-78
2021/07/15 10:31:17;;;;;;;3.85;2.60;;;;;;;20.53;70.65;96980.81;5044435;28;20029;-78
2021/07/15 10:33:44;;;;;;;2.28;1.98;;;;;;;20.62;70.14;96970.22;5036704;28;20025;-78
2021/07/15 10:36:10;;;;;;;2.20;2.00;;;;;;;20.74;69.95;96975.66;5022608;28;20531;-78
2021/07/15 10:38:45;;;;;;;1.92;1.83;;;;;;;20.68;69.29;96974.28;5039521;28;20025;-78
2021/07/15 10:41:11;;;;;;;2.00;1.77;;;;;;;20.89;69.51;96971.72;5028522;28;20025;-79
2021/07/15 10:43:41;;;;;;;2.00;1.85;;;;;;;20.83;70.02;96975.63;5043503;28;20479;-78
2021/07/15 10:46:07;;;;;;;2.13;1.92;;;;;;;21.14;69.50;96971.94;5031693;28;20036;-79
2021/07/15 10:48:37;;;;;;;1.85;1.75;;;;;;;21.24;69.25;96976.13;5029717;28;20443;-79
2021/07/15 10:51:03;;;;;;;2.40;1.90;;;;;;;21.47;69.46;96982.72;5008204;28;20036;-79
2021/07/15 10:53:32;;;;;;;1.70;1.40;;;;;;;21.60;68.67;96974.88;5035219;28;20044;-79
2021/07/15 10:55:59;;;;;;;1.52;1.40;;;;;;;22.17;67.22;96976.94;5011483;28;20029;-78
2021/07/15 10:58:48;;;;;;;1.40;1.30;;;;;;;22.18;65.44;96978.50;4999453;28;20032;-78
2021/07/15 11:01:36;;;;;;;1.40;1.30;;;;;;;22.28;66.15;96989.84;5030843;28;20031;-78
2021/07/15 11:04:05;;;;;;;1.33;1.00;;;;;;;22.53;66.37;96990.72;5045976;28;20076;-78
2021/07/15 11:06:45;;;;;;;1.30;1.20;;;;;;;22.46;65.55;96982.53;5041348;28;20375;-78
2021/07/15 11:09:36;;;;;;;1.00;0.77;;;;;;;22.46;64.21;96993.91;5047538;28;20029;-78
2021/07/15 11:12:04;;;;;;;0.90;0.90;;;;;;;22.71;64.53;96999.31;5044914;28;20029;-78
2021/07/15 11:14:44;;;;;;;1.10;1.10;;;;;;;22.56;63.59;97004.09;5021517;28;20036;-78
2021/07/15 11:17:33;;;;;;;1.42;0.80;;;;;;;22.33;63.83;97005.56;5024593;28;20033;-78
2021/07/15 11:20:26;;;;;;;0.90;0.90;;;;;;;22.41;64.58;97012.66;5037702;28;20092;-78
2021/07/15 11:23:07;;;;;;;1.00;1.00;;;;;;;22.36;65.34;97004.91;5026484;28;20048;-78
2021/07/15 11:25:35;;;;;;;1.20;1.10;;;;;;;22.57;64.29;97002.25;5045246;28;20380;-77
2021/07/15 11:28:10;;;;;;;1.25;1.15;;;;;;;22.36;65.62;97012.88;5044660;28;20108;-77
2021/07/15 11:30:35;;;;;;;0.95;0.95;;;;;;;22.48;65.51;97010.25;5049266;28;20029;-78
2021/07/15 11:33:22;;;;;;;1.17;1.17;;;;;;;22.22;66.25;97015.75;5042895;28;20072;-79
2021/07/15 11:35:51;;;;;;;1.00;1.00;;;;;;;22.12;66.96;97022.22;5019151;28;20030;-78
2021/07/15 11:38:26;;;;;;;1.13;1.10;;;;;;;21.95;67.05;97012.53;5039480;28;20029;-78